Time;durP1;ratioP1;P1;durP2;ratioP2;P2;SDS_P1;SDS_P2;PMS_P1;PMS_P2;Temp;Humidity;BMP_temperature;BMP_pressure;BME280_temperature;BME280_humidity;BME280_pressure;Samples;Min_cycle;Max_cycle;Signal;HPM_P1;HPM_P2
2022/09/30 00:00:18;;;;;;;9.35;7.18;;;5.70;99.90;;;;;;5051646;28;20017;-73
2022/09/30 00:02:44;;;;;;;8.98;7.22;;;5.70;99.90;;;;;;5051415;28;20013;-73
2022/09/30 00:05:09;;;;;;;9.07;6.63;;;5.80;99.90;;;;;;5051397;28;20495;-73
2022/09/30 00:07:35;;;;;;;7.78;7.05;;;5.80;99.90;;;;;;5051343;28;20048;-73
2022/09/30 00:10:01;;;;;;;11.05;7.00;;;5.70;99.90;;;;;;5051461;28;20062;-73
2022/09/30 00:12:27;;;;;;;8.80;7.90;;;5.70;99.90;;;;;;5051519;28;20013;-73
2022/09/30 00:14:53;;;;;;;8.73;7.50;;;5.80;99.90;;;;;;5051408;28;20020;-75
2022/09/30 00:17:19;;;;;;;9.45;8.27;;;5.90;99.90;;;;;;5051309;28;20021;-75
2022/09/30 00:19:46;;;;;;;10.65;9.48;;;6.00;99.90;;;;;;5056001;28;20112;-74
2022/09/30 00:22:11;;;;;;;8.95;7.65;;;5.80;99.90;;;;;;5033602;28;20083;-75
2022/09/30 00:24:37;;;;;;;12.10;8.68;;;5.60;99.90;;;;;;5051390;28;20478;-74
2022/09/30 00:27:03;;;;;;;8.55;7.70;;;5.70;99.90;;;;;;5051158;28;20041;-75
2022/09/30 00:29:28;;;;;;;9.30;8.18;;;5.80;99.90;;;;;;5051220;28;20079;-75
2022/09/30 00:31:54;;;;;;;8.82;7.82;;;5.90;99.90;;;;;;5052583;28;20067;-74
2022/09/30 00:34:19;;;;;;;8.57;6.88;;;5.90;99.90;;;;;;5055126;28;20097;-74
2022/09/30 00:36:48;;;;;;;8.45;7.65;;;6.00;99.90;;;;;;5055279;28;20044;-74
2022/09/30 00:39:21;;;;;;;8.43;7.57;;;6.00;99.90;;;;;;5055227;28;20025;-74
2022/09/30 00:41:50;;;;;;;12.63;8.65;;;6.00;99.90;;;;;;5055171;28;20032;-73
2022/09/30 00:44:50;;;;;;;8.80;7.95;;;5.80;99.90;;;;;;5037367;28;20055;-73
2022/09/30 00:47:53;;;;;;;11.32;9.13;;;5.80;99.90;;;;;;5036067;28;20119;-74
2022/09/30 00:50:36;;;;;;;12.70;7.57;;;5.70;99.90;;;;;;5051230;28;20032;-75
2022/09/30 00:53:22;;;;;;;13.18;8.43;;;5.70;99.90;;;;;;5031017;28;20059;-74
2022/09/30 00:56:02;;;;;;;12.50;10.30;;;5.70;99.90;;;;;;5055021;28;20017;-74
2022/09/30 00:58:37;;;;;;;10.00;7.82;;;5.60;99.90;;;;;;5054628;28;20025;-74
2022/09/30 01:01:04;;;;;;;13.75;11.13;;;5.50;99.90;;;;;;5054979;28;20013;-74
2022/09/30 01:03:37;;;;;;;9.82;8.80;;;5.50;99.90;;;;;;5054505;28;20033;-74
2022/09/30 01:06:03;;;;;;;9.68;8.77;;;5.50;99.90;;;;;;5036903;28;20079;-74
2022/09/30 01:08:32;;;;;;;10.80;8.55;;;5.40;99.90;;;;;;5054699;28;20056;-74
2022/09/30 01:10:58;;;;;;;8.38;7.57;;;5.30;99.90;;;;;;5054682;28;20508;-74
2022/09/30 01:13:26;;;;;;;8.32;7.10;;;5.30;99.90;;;;;;5054533;28;20036;-75
2022/09/30 01:16:26;;;;;;;8.57;7.60;;;5.30;99.90;;;;;;5054602;28;20015;-74
2022/09/30 01:19:21;;;;;;;9.30;7.35;;;5.20;99.90;;;;;;5054020;28;20044;-75
2022/09/30 01:22:12;;;;;;;8.85;7.13;;;5.10;99.90;;;;;;5036653;28;20082;-73
2022/09/30 01:25:05;;;;;;;8.68;6.97;;;5.20;99.90;;;;;;5054371;28;20020;-74
2022/09/30 01:27:42;;;;;;;6.85;5.90;;;5.20;99.90;;;;;;5054141;28;20409;-73
2022/09/30 01:30:19;;;;;;;8.27;6.30;;;5.40;99.90;;;;;;5054340;28;20044;-74
2022/09/30 01:32:59;;;;;;;7.15;6.47;;;5.30;99.90;;;;;;5054170;28;20386;-74
2022/09/30 01:35:56;;;;;;;7.85;7.15;;;5.30;99.90;;;;;;5036208;28;20041;-74
2022/09/30 01:38:28;;;;;;;47.35;12.40;;;5.40;99.90;;;;;;5036053;28;20086;-74
2022/09/30 01:41:10;;;;;;;17.58;8.77;;;4.90;99.90;;;;;;5054077;28;20032;-74
2022/09/30 01:43:40;;;;;;;11.75;10.63;;;4.30;99.90;;;;;;5054069;28;20026;-74
2022/09/30 01:46:25;;;;;;;11.55;10.38;;;4.30;99.90;;;;;;5054134;28;20056;-74
2022/09/30 01:48:50;;;;;;;7.72;6.95;;;4.40;99.90;;;;;;5051090;28;20042;-74
2022/09/30 01:52:05;;;;;;;6.85;6.25;;;4.50;99.90;;;;;;5035982;28;20055;-73
2022/09/30 01:55:00;;;;;;;7.43;6.65;;;4.50;99.90;;;;;;4971687;28;20034;-74
2022/09/30 01:57:49;;;;;;;6.40;5.80;;;4.60;99.90;;;;;;4972701;28;20035;-74
2022/09/30 02:00:15;;;;;;;8.20;7.40;;;4.70;99.90;;;;;;5038935;28;20677;-75
2022/09/30 02:03:08;;;;;;;9.80;7.32;;;4.70;99.90;;;;;;5035704;28;20025;-73
2022/09/30 02:05:54;;;;;;;18.38;12.50;;;4.70;99.90;;;;;;5043740;28;20017;-73
2022/09/30 02:08:27;;;;;;;28.83;11.85;;;4.80;99.90;;;;;;5035785;28;20087;-73
2022/09/30 02:11:05;;;;;;;7.50;6.88;;;4.50;99.90;;;;;;5053686;28;20036;-72
2022/09/30 02:13:52;;;;;;;7.47;6.18;;;4.50;99.90;;;;;;5053628;28;20033;-72
2022/09/30 02:16:34;;;;;;;8.20;7.07;;;4.60;99.90;;;;;;5053476;28;20025;-72
2022/09/30 02:19:25;;;;;;;7.80;6.93;;;4.50;99.90;;;;;;5053084;28;20048;-71
2022/09/30 02:22:10;;;;;;;8.18;6.65;;;4.50;99.90;;;;;;5053352;28;20111;-73
2022/09/30 02:24:37;;;;;;;8.48;6.90;;;4.50;99.90;;;;;;5053462;28;20483;-74
2022/09/30 02:27:10;;;;;;;8.27;6.10;;;4.40;99.90;;;;;;5035416;28;20079;-74
2022/09/30 02:29:41;;;;;;;7.20;6.53;;;4.40;99.90;;;;;;5053259;28;20028;-74
2022/09/30 02:32:15;;;;;;;7.10;6.40;;;4.40;99.90;;;;;;5053378;28;20045;-72
2022/09/30 02:34:46;;;;;;;10.48;7.70;;;4.40;99.90;;;;;;5033381;28;20030;-73
2022/09/30 02:37:20;;;;;;;10.73;8.23;;;4.50;99.90;;;;;;5047717;28;20032;-72
2022/09/30 02:39:57;;;;;;;24.08;8.32;;;4.30;99.90;;;;;;5052999;28;20051;-71
2022/09/30 02:42:29;;;;;;;28.83;7.57;;;4.20;99.90;;;;;;5053150;28;20028;-73
2022/09/30 02:45:15;;;;;;;48.88;11.68;;;4.20;99.90;;;;;;5035078;28;20025;-74
2022/09/30 02:48:02;;;;;;;12.02;8.25;;;4.00;99.90;;;;;;5052611;28;20083;-74
2022/09/30 02:50:43;;;;;;;10.85;9.38;;;4.10;99.90;;;;;;5034966;28;20033;-73
2022/09/30 02:53:46;;;;;;;7.53;6.70;;;4.10;99.90;;;;;;5052820;28;20143;-72
2022/09/30 02:56:22;;;;;;;7.47;6.40;;;4.00;99.90;;;;;;5051585;28;20654;-73
2022/09/30 02:58:50;;;;;;;10.93;6.80;;;4.10;99.90;;;;;;5052383;28;20070;-73
2022/09/30 03:01:16;;;;;;;105.00;14.00;;;4.20;99.90;;;;;;5052679;28;20041;-73
2022/09/30 03:04:03;;;;;;;57.17;11.73;;;4.20;99.90;;;;;;5052600;28;20537;-73
2022/09/30 03:06:29;;;;;;;19.00;11.95;;;4.10;99.90;;;;;;5051091;28;20106;-71
2022/09/30 03:08:54;;;;;;;13.68;9.70;;;3.90;99.90;;;;;;5052356;28;20482;-72
2022/09/30 03:11:26;;;;;;;29.13;12.50;;;3.80;99.90;;;;;;5034658;28;20025;-73
2022/09/30 03:14:31;;;;;;;55.83;15.32;;;3.80;99.90;;;;;;5052411;28;20075;-74
2022/09/30 03:17:24;;;;;;;226.90;23.88;;;4.00;99.90;;;;;;5052170;28;20047;-72
2022/09/30 03:19:58;;;;;;;181.23;19.17;;;3.80;99.90;;;;;;5052144;28;20090;-73
2022/09/30 03:22:45;;;;;;;246.02;21.55;;;3.90;99.90;;;;;;5034443;28;20115;-72
2022/09/30 03:25:34;;;;;;;205.00;20.42;;;4.10;99.90;;;;;;5052179;28;20158;-72
2022/09/30 03:28:19;;;;;;;177.02;20.30;;;4.20;99.90;;;;;;5051939;28;20025;-72
2022/09/30 03:31:02;;;;;;;59.03;13.90;;;4.00;99.90;;;;;;5052129;28;20100;-72
2022/09/30 03:33:55;;;;;;;86.45;13.55;;;4.20;99.90;;;;;;5051946;28;20112;-72
2022/09/30 03:36:39;;;;;;;89.50;12.27;;;4.30;99.90;;;;;;5050870;28;20025;-71
2022/09/30 03:39:29;;;;;;;32.47;9.75;;;4.40;99.90;;;;;;5051778;28;20045;-71
2022/09/30 03:42:14;;;;;;;42.90;10.18;;;4.50;99.90;;;;;;5052102;28;20025;-74
2022/09/30 03:45:15;;;;;;;129.20;16.23;;;4.60;99.90;;;;;;5030834;28;20398;-73
2022/09/30 03:47:45;;;;;;;256.02;23.10;;;4.50;99.90;;;;;;5038544;28;20078;-72
2022/09/30 03:50:15;;;;;;;299.80;41.03;;;4.40;99.90;;;;;;5051858;28;20025;-73
2022/09/30 03:52:41;;;;;;;211.85;29.58;;;4.30;99.90;;;;;;5051746;28;20025;-72
2022/09/30 03:55:10;;;;;;;423.70;37.88;;;4.30;99.90;;;;;;5051638;28;20154;-70
2022/09/30 03:57:36;;;;;;;213.13;24.25;;;4.20;99.90;;;;;;5033623;28;20021;-71
2022/09/30 04:00:02;;;;;;;238.50;17.13;;;4.40;99.90;;;;;;5051610;28;20537;-72
2022/09/30 04:02:28;;;;;;;305.63;31.08;;;4.40;99.90;;;;;;5033722;28;20559;-72
2022/09/30 04:04:54;;;;;;;116.22;22.58;;;4.20;99.90;;;;;;5050318;28;20060;-73
2022/09/30 04:07:19;;;;;;;240.70;37.67;;;4.20;99.90;;;;;;5032761;28;20128;-73
2022/09/30 04:09:45;;;;;;;95.45;25.20;;;4.10;99.90;;;;;;5033599;28;20025;-73
2022/09/30 04:12:10;;;;;;;86.65;15.95;;;4.10;99.90;;;;;;5033709;28;20017;-75
2022/09/30 04:14:36;;;;;;;79.60;16.52;;;4.20;99.90;;;;;;5051503;28;20029;-73
2022/09/30 04:17:03;;;;;;;137.57;27.15;;;4.20;99.90;;;;;;5033418;28;20025;-74
2022/09/30 04:19:29;;;;;;;190.55;22.60;;;4.10;99.90;;;;;;5033858;28;20086;-73
2022/09/30 04:21:55;;;;;;;94.55;18.20;;;4.00;99.90;;;;;;5051834;28;20022;-73
2022/09/30 04:24:22;;;;;;;63.92;16.58;;;3.90;99.90;;;;;;5050588;28;20040;-72
2022/09/30 04:26:48;;;;;;;74.68;13.95;;;3.90;99.90;;;;;;5051621;28;20025;-73
2022/09/30 04:29:14;;;;;;;180.32;15.52;;;4.00;99.90;;;;;;5051459;28;20025;-72
2022/09/30 04:31:40;;;;;;;137.80;14.48;;;4.10;99.90;;;;;;5051948;28;20386;-72
2022/09/30 04:34:05;;;;;;;55.20;12.40;;;4.10;99.90;;;;;;5051772;28;20033;-74
2022/09/30 04:36:31;;;;;;;65.10;12.02;;;3.90;99.90;;;;;;5051960;28;20033;-72
2022/09/30 04:38:56;;;;;;;30.55;10.55;;;3.90;99.90;;;;;;5051506;28;20417;-72
2022/09/30 04:41:22;;;;;;;9.13;8.20;;;3.90;99.90;;;;;;5051307;28;20021;-72
2022/09/30 04:43:48;;;;;;;8.23;7.53;;;3.90;99.90;;;;;;5051196;28;20505;-72
2022/09/30 04:46:15;;;;;;;36.72;10.63;;;3.90;99.90;;;;;;5033377;28;20059;-72
2022/09/30 04:48:44;;;;;;;63.60;10.90;;;3.80;99.90;;;;;;5050903;28;20095;-72
2022/09/30 04:51:14;;;;;;;53.30;10.05;;;3.90;99.90;;;;;;5051168;28;20025;-71
2022/09/30 04:53:40;;;;;;;194.23;19.40;;;4.00;99.90;;;;;;5051112;28;20025;-71
2022/09/30 04:56:06;;;;;;;116.32;14.50;;;4.00;99.90;;;;;;5033305;28;20032;-71
2022/09/30 04:58:32;;;;;;;242.38;27.85;;;3.80;99.90;;;;;;5050401;28;20028;-72
2022/09/30 05:01:07;;;;;;;351.25;41.33;;;3.70;99.90;;;;;;5051039;28;20060;-73
2022/09/30 05:03:34;;;;;;;386.38;35.17;;;3.50;99.90;;;;;;5050995;28;20029;-73
2022/09/30 05:06:00;;;;;;;481.58;42.60;;;3.30;99.90;;;;;;5051117;28;20544;-72
2022/09/30 05:08:26;;;;;;;352.20;34.67;;;3.10;99.90;;;;;;5033663;28;20083;-72
2022/09/30 05:11:00;;;;;;;617.08;49.22;;;3.10;99.90;;;;;;5034408;28;20037;-74
2022/09/30 05:13:31;;;;;;;298.27;36.17;;;3.00;99.90;;;;;;5033238;28;20394;-73
2022/09/30 05:15:57;;;;;;;234.23;27.75;;;3.10;99.90;;;;;;5051050;28;20029;-73
2022/09/30 05:18:25;;;;;;;679.92;44.15;;;3.20;99.90;;;;;;5052843;28;20029;-74
2022/09/30 05:20:52;;;;;;;207.15;33.28;;;3.20;99.90;;;;;;5055091;28;20021;-74
2022/09/30 05:23:19;;;;;;;241.70;31.02;;;3.20;99.90;;;;;;5054689;28;20025;-74
2022/09/30 05:25:45;;;;;;;138.90;15.00;;;3.20;99.90;;;;;;5036661;28;20025;-74
2022/09/30 05:28:11;;;;;;;176.38;18.65;;;3.40;99.90;;;;;;5036403;28;20032;-74
2022/09/30 05:30:37;;;;;;;155.50;35.03;;;3.50;99.90;;;;;;5054520;28;20028;-74
2022/09/30 05:33:03;;;;;;;352.50;51.70;;;3.30;99.90;;;;;;5054509;28;20378;-74
2022/09/30 05:35:29;;;;;;;509.88;130.50;;;3.10;99.90;;;;;;5054426;28;20088;-73
2022/09/30 05:37:54;;;;;;;223.35;44.90;;;2.90;99.90;;;;;;5054192;28;20076;-74
2022/09/30 05:40:20;;;;;;;400.45;54.72;;;2.80;99.90;;;;;;5054284;28;20017;-74
2022/09/30 05:42:46;;;;;;;486.88;123.25;;;2.80;99.90;;;;;;5052929;28;20021;-74
2022/09/30 05:45:12;;;;;;;428.13;54.33;;;2.70;99.90;;;;;;5053112;28;20029;-73
2022/09/30 05:47:38;;;;;;;342.60;33.95;;;2.70;99.90;;;;;;5053898;28;20043;-74
2022/09/30 05:50:04;;;;;;;278.35;27.70;;;2.80;99.90;;;;;;5052851;28;20546;-76
2022/09/30 05:52:29;;;;;;;392.98;38.65;;;2.80;99.90;;;;;;5053936;28;20048;-73
2022/09/30 05:54:57;;;;;;;368.52;42.20;;;2.80;99.90;;;;;;5035970;28;20056;-73
2022/09/30 05:57:24;;;;;;;202.02;20.83;;;2.90;99.90;;;;;;5053745;28;20024;-74
2022/09/30 05:59:50;;;;;;;395.73;39.92;;;3.00;99.90;;;;;;5052254;28;20025;-73
2022/09/30 06:02:15;;;;;;;359.83;38.03;;;3.00;99.90;;;;;;5052506;28;20470;-74
2022/09/30 06:04:41;;;;;;;302.15;28.40;;;3.00;99.90;;;;;;5053691;28;20040;-74
2022/09/30 06:07:06;;;;;;;272.00;24.65;;;3.10;99.90;;;;;;5035790;28;20561;-73
2022/09/30 06:09:32;;;;;;;142.15;15.50;;;3.20;99.90;;;;;;5053231;28;20053;-73
2022/09/30 06:11:59;;;;;;;189.45;24.77;;;3.40;99.90;;;;;;5035343;28;20494;-73
2022/09/30 06:14:25;;;;;;;125.03;21.08;;;3.50;99.90;;;;;;5027626;28;20025;-73
2022/09/30 06:16:50;;;;;;;86.57;16.17;;;3.40;99.90;;;;;;5053288;28;20017;-73
2022/09/30 06:19:16;;;;;;;67.63;11.77;;;3.50;99.90;;;;;;5053279;28;20035;-74
2022/09/30 06:21:41;;;;;;;213.85;19.77;;;3.90;99.90;;;;;;5053560;28;20402;-74
2022/09/30 06:24:11;;;;;;;148.65;14.15;;;4.00;99.90;;;;;;5035114;28;20029;-74
2022/09/30 06:26:38;;;;;;;310.23;27.05;;;4.20;99.90;;;;;;5053102;28;20105;-73
2022/09/30 06:29:03;;;;;;;63.97;9.18;;;4.10;99.90;;;;;;5052073;28;20021;-74
2022/09/30 06:31:30;;;;;;;52.25;10.00;;;4.20;99.90;;;;;;5026820;28;20395;-73
2022/09/30 06:33:56;;;;;;;114.95;14.98;;;4.20;99.90;;;;;;5052728;28;20021;-74
2022/09/30 06:36:22;;;;;;;19.15;7.07;;;4.20;99.90;;;;;;5052859;28;20052;-74
2022/09/30 06:38:50;;;;;;;55.90;10.68;;;4.20;99.90;;;;;;5030097;28;20651;-77
2022/09/30 06:41:16;;;;;;;91.85;11.25;;;4.20;99.90;;;;;;5035158;28;20405;-75
2022/09/30 06:43:41;;;;;;;104.03;10.98;;;4.20;99.90;;;;;;5051747;28;20132;-73
2022/09/30 06:46:08;;;;;;;138.98;14.10;;;4.20;99.90;;;;;;5052546;28;20064;-74
2022/09/30 06:48:33;;;;;;;299.17;17.98;;;4.30;99.90;;;;;;5052200;28;20028;-73
2022/09/30 06:50:59;;;;;;;327.42;28.55;;;4.40;99.90;;;;;;5052656;28;20071;-74
2022/09/30 06:53:26;;;;;;;166.13;19.25;;;4.40;99.90;;;;;;5050936;28;20032;-73
2022/09/30 06:55:56;;;;;;;457.52;39.28;;;4.40;99.90;;;;;;5052846;28;20108;-73
2022/09/30 06:58:25;;;;;;;301.55;32.92;;;4.30;99.90;;;;;;5052383;28;20056;-74
2022/09/30 07:01:03;;;;;;;377.25;38.45;;;4.20;99.90;;;;;;5052115;28;20013;-74
2022/09/30 07:03:31;;;;;;;222.13;18.02;;;4.20;99.90;;;;;;5052643;28;20039;-74
2022/09/30 07:05:59;;;;;;;208.10;30.73;;;4.00;99.90;;;;;;5052727;28;20035;-74
2022/09/30 07:08:30;;;;;;;177.07;18.92;;;4.30;99.90;;;;;;5052397;28;20390;-74
2022/09/30 07:11:10;;;;;;;142.43;16.27;;;4.20;99.90;;;;;;5052558;28;20079;-71
2022/09/30 07:13:36;;;;;;;527.58;42.05;;;4.50;99.90;;;;;;5050950;28;20409;-72
2022/09/30 07:16:02;;;;;;;398.00;33.85;;;4.50;99.90;;;;;;5052442;28;20100;-73
2022/09/30 07:18:27;;;;;;;466.23;31.80;;;4.60;99.90;;;;;;5051827;28;20033;-74
2022/09/30 07:20:55;;;;;;;97.05;11.35;;;4.60;99.90;;;;;;5052275;28;20033;-72
2022/09/30 07:23:22;;;;;;;466.17;33.97;;;4.60;99.90;;;;;;5052287;28;20087;-72
2022/09/30 07:26:03;;;;;;;494.38;39.28;;;4.80;99.90;;;;;;5052198;28;20025;-73
2022/09/30 07:28:34;;;;;;;439.20;30.48;;;4.60;99.90;;;;;;5051783;28;20025;-73
2022/09/30 07:31:06;;;;;;;306.35;22.92;;;4.80;99.90;;;;;;5052086;28;20061;-73
2022/09/30 07:33:32;;;;;;;169.18;20.25;;;4.90;99.90;;;;;;5051958;28;20390;-74
2022/09/30 07:35:59;;;;;;;598.20;40.28;;;5.00;99.90;;;;;;5052051;28;20025;-74
2022/09/30 07:38:29;;;;;;;677.75;40.42;;;5.00;99.90;;;;;;5051688;28;20078;-74
2022/09/30 07:41:01;;;;;;;592.17;47.42;;;5.10;99.90;;;;;;5034027;28;20025;-76
2022/09/30 07:43:39;;;;;;;891.17;51.33;;;4.90;99.90;;;;;;5051856;28;20475;-77
2022/09/30 07:46:19;;;;;;;377.05;40.25;;;4.80;99.90;;;;;;5051836;28;20024;-76
2022/09/30 07:48:47;;;;;;;257.23;26.90;;;4.80;99.90;;;;;;5033588;28;20028;-76
2022/09/30 07:51:19;;;;;;;287.13;22.88;;;5.10;99.90;;;;;;5034060;28;20024;-74
2022/09/30 07:53:48;;;;;;;535.03;32.80;;;5.30;99.90;;;;;;5051368;28;20024;-71
2022/09/30 07:56:14;;;;;;;209.75;19.92;;;5.30;99.90;;;;;;5047679;28;20031;-73
2022/09/30 07:58:40;;;;;;;649.55;45.85;;;5.60;99.90;;;;;;5050036;28;20502;-73
2022/09/30 08:01:06;;;;;;;321.10;29.20;;;5.70;99.90;;;;;;5047768;28;20086;-74
2022/09/30 08:03:39;;;;;;;260.13;25.00;;;5.80;99.90;;;;;;5051566;28;20035;-74
2022/09/30 08:06:16;;;;;;;48.22;12.02;;;6.20;99.90;;;;;;5034051;28;20382;-75
2022/09/30 08:08:44;;;;;;;30.42;12.15;;;6.30;99.90;;;;;;5037153;28;20051;-75
2022/09/30 08:11:11;;;;;;;6.38;5.82;;;6.30;99.90;;;;;;5051787;28;20156;-75
2022/09/30 08:13:37;;;;;;;14.05;9.40;;;6.60;99.90;;;;;;5051339;28;20032;-75
2022/09/30 08:16:03;;;;;;;214.25;20.05;;;6.90;99.90;;;;;;5051551;28;20386;-75
2022/09/30 08:18:29;;;;;;;35.88;10.23;;;6.70;99.90;;;;;;5033177;28;20044;-74
2022/09/30 08:20:55;;;;;;;9.70;7.43;;;6.90;99.90;;;;;;5051601;28;20021;-75
2022/09/30 08:23:20;;;;;;;9.90;8.90;;;7.20;99.90;;;;;;5051497;28;20108;-74
2022/09/30 08:25:46;;;;;;;8.48;7.68;;;7.50;99.90;;;;;;5051469;28;20033;-74
2022/09/30 08:28:12;;;;;;;259.55;25.15;;;7.70;99.90;;;;;;5033323;28;20025;-74
2022/09/30 08:30:38;;;;;;;120.00;18.05;;;7.70;99.90;;;;;;5051467;28;20082;-75
2022/09/30 08:33:04;;;;;;;35.05;10.35;;;7.30;99.90;;;;;;5051491;28;20029;-73
2022/09/30 08:35:30;;;;;;;12.55;8.85;;;7.30;99.90;;;;;;5033513;28;20025;-73
2022/09/30 08:37:56;;;;;;;15.40;9.10;;;7.60;99.90;;;;;;5051222;28;20029;-74
2022/09/30 08:40:26;;;;;;;56.95;12.88;;;7.80;99.90;;;;;;5051517;28;20381;-74
2022/09/30 08:43:23;;;;;;;46.58;11.38;;;7.60;99.90;;;;;;5051337;28;20017;-73
2022/09/30 08:46:06;;;;;;;85.60;16.92;;;7.80;99.90;;;;;;5050044;28;20058;-74
2022/09/30 08:48:40;;;;;;;101.32;17.67;;;7.50;99.90;;;;;;5051225;28;20055;-74
2022/09/30 08:51:26;;;;;;;22.40;12.43;;;7.60;99.90;;;;;;5051386;28;20506;-74
2022/09/30 08:53:53;;;;;;;33.35;14.82;;;7.70;99.90;;;;;;5054013;28;20540;-74
2022/09/30 08:56:23;;;;;;;14.73;11.60;;;7.90;99.90;;;;;;5055185;28;20047;-74
2022/09/30 08:58:52;;;;;;;17.20;12.45;;;8.00;99.90;;;;;;5055010;28;20025;-74
2022/09/30 09:01:30;;;;;;;21.48;12.98;;;8.10;99.90;;;;;;5037089;28;20025;-76
2022/09/30 09:03:58;;;;;;;27.95;11.23;;;8.00;99.90;;;;;;5070577;28;20443;-73
2022/09/30 09:06:45;;;;;;;9.80;8.77;;;7.80;99.90;;;;;;5070206;28;20478;-75
2022/09/30 09:09:34;;;;;;;10.90;9.15;;;8.20;99.90;;;;;;5054643;28;20083;-74
2022/09/30 09:12:39;;;;;;;10.30;9.35;;;8.60;99.90;;;;;;5041946;28;20052;-74
2022/09/30 09:15:23;;;;;;;10.98;9.88;;;8.60;99.90;;;;;;5054114;28;20112;-73
2022/09/30 09:17:51;;;;;;;12.10;10.98;;;8.60;99.90;;;;;;5054282;28;20059;-73
2022/09/30 09:20:21;;;;;;;13.90;11.88;;;8.40;99.90;;;;;;5054479;28;20063;-73
2022/09/30 09:22:49;;;;;;;12.27;11.07;;;8.60;99.90;;;;;;5052952;28;20045;-73
2022/09/30 09:25:18;;;;;;;13.18;11.90;;;8.60;99.90;;;;;;5054545;28;20025;-73
2022/09/30 09:27:59;;;;;;;11.85;10.73;;;8.60;99.90;;;;;;5054073;28;20017;-74
2022/09/30 09:30:28;;;;;;;11.18;10.02;;;8.80;99.90;;;;;;5054610;28;20036;-74
2022/09/30 09:32:57;;;;;;;11.68;10.57;;;8.50;99.90;;;;;;5054303;28;20024;-74
2022/09/30 09:35:41;;;;;;;13.35;12.15;;;8.40;99.90;;;;;;5054374;28;20386;-74
2022/09/30 09:38:44;;;;;;;15.23;13.73;;;8.60;99.90;;;;;;5053970;28;20047;-74
2022/09/30 09:41:49;;;;;;;14.55;13.07;;;8.80;99.90;;;;;;5054049;28;20060;-74
2022/09/30 09:44:52;;;;;;;14.98;13.57;;;8.80;99.90;;;;;;5054088;28;20025;-73
2022/09/30 09:47:18;;;;;;;14.45;13.05;;;8.90;99.90;;;;;;5053977;28;20483;-73
2022/09/30 09:50:13;;;;;;;15.82;14.23;;;9.00;99.90;;;;;;5053883;28;20024;-74
2022/09/30 09:52:59;;;;;;;15.85;13.77;;;8.50;99.90;;;;;;5033614;28;20048;-73
2022/09/30 09:55:25;;;;;;;13.82;12.48;;;8.80;99.90;;;;;;5049114;28;20074;-72
2022/09/30 09:58:05;;;;;;;15.90;13.15;;;9.00;99.90;;;;;;5035616;28;20028;-73
2022/09/30 10:03:22;;;;;;;14.48;13.07;;;9.10;99.90;;;;;;5054011;28;20024;-73
2022/09/30 10:05:59;;;;;;;;;;;9.10;99.90;;;;;;5044690;28;20025;-73
2022/09/30 10:08:25;;;;;;;14.50;13.02;;;9.00;99.90;;;;;;5035392;28;20474;-74
2022/09/30 10:10:57;;;;;;;14.02;12.63;;;9.20;99.90;;;;;;5052253;28;20059;-74
2022/09/30 10:13:40;;;;;;;14.15;12.65;;;9.40;99.90;;;;;;5053384;28;20495;-73
2022/09/30 10:16:05;;;;;;;13.05;11.63;;;9.40;99.90;;;;;;5053455;28;20010;-72
2022/09/30 10:18:34;;;;;;;13.07;11.80;;;9.70;99.90;;;;;;5053050;28;20021;-74
2022/09/30 10:21:04;;;;;;;12.55;11.45;;;9.90;99.90;;;;;;5035274;28;20021;-74
2022/09/30 10:23:35;;;;;;;11.70;10.50;;;10.00;99.90;;;;;;5035402;28;20053;-74
2022/09/30 10:26:03;;;;;;;10.82;9.82;;;10.10;99.90;;;;;;5053209;28;20020;-74
2022/09/30 10:28:42;;;;;;;10.88;9.75;;;10.00;99.90;;;;;;5052941;28;20494;-73
2022/09/30 10:31:15;;;;;;;9.85;8.88;;;10.10;99.90;;;;;;5035283;28;20183;-73
2022/09/30 10:33:47;;;;;;;11.63;9.40;;;10.30;99.90;;;;;;5053385;28;20036;-73
2022/09/30 10:36:16;;;;;;;9.55;8.15;;;10.50;99.90;;;;;;5030427;28;20021;-73
2022/09/30 10:38:52;;;;;;;9.52;8.55;;;10.60;99.90;;;;;;5034714;28;20037;-73
2022/09/30 10:41:27;;;;;;;9.68;8.57;;;10.70;99.90;;;;;;5052934;28;20025;-73
2022/09/30 10:43:58;;;;;;;10.57;7.43;;;10.70;99.90;;;;;;5049868;28;20021;-73
2022/09/30 10:46:36;;;;;;;7.88;6.47;;;10.90;99.90;;;;;;5052778;28;20025;-73
2022/09/30 10:49:19;;;;;;;6.45;5.40;;;11.10;99.90;;;;;;5053380;28;20017;-73
2022/09/30 10:51:45;;;;;;;6.60;5.93;;;11.20;99.90;;;;;;5052724;28;20528;-73
2022/09/30 10:54:33;;;;;;;5.85;5.25;;;11.40;99.90;;;;;;5053018;28;20025;-73
2022/09/30 10:57:02;;;;;;;7.80;4.70;;;11.60;99.90;;;;;;5051494;28;20425;-74
2022/09/30 10:59:36;;;;;;;6.07;5.32;;;11.60;99.90;;;;;;5053596;28;20051;-74
2022/09/30 11:02:33;;;;;;;5.15;4.53;;;11.70;99.90;;;;;;5052556;28;20021;-73
2022/09/30 11:05:08;;;;;;;5.47;4.90;;;12.00;99.90;;;;;;5049958;28;20021;-73
2022/09/30 11:08:12;;;;;;;10.13;4.97;;;12.00;99.90;;;;;;5034686;28;20033;-74
2022/09/30 11:10:53;;;;;;;8.15;4.60;;;12.10;99.90;;;;;;5026994;28;20037;-75
2022/09/30 11:13:43;;;;;;;5.53;3.90;;;12.10;99.90;;;;;;5051233;28;20032;-74
2022/09/30 11:16:14;;;;;;;8.27;4.50;;;12.20;99.90;;;;;;5046899;28;20490;-74
2022/09/30 11:18:53;;;;;;;7.28;4.15;;;12.40;99.90;;;;;;5052156;28;20497;-74
2022/09/30 11:21:48;;;;;;;4.78;3.60;;;12.50;99.90;;;;;;5055726;28;20017;-75
2022/09/30 11:24:14;;;;;;;6.20;4.18;;;12.70;99.90;;;;;;5024047;28;20087;-74
2022/09/30 11:27:01;;;;;;;5.97;4.93;;;12.80;99.90;;;;;;5051906;28;20108;-74
2022/09/30 11:29:52;;;;;;;5.40;4.90;;;12.90;99.90;;;;;;5051624;28;20040;-74
2022/09/30 11:32:36;;;;;;;5.75;4.75;;;13.00;99.90;;;;;;5051897;28;20025;-73
2022/09/30 11:35:18;;;;;;;5.80;4.10;;;13.00;99.90;;;;;;5048186;28;20374;-74
2022/09/30 11:38:01;;;;;;;7.57;4.18;;;13.00;99.90;;;;;;5051516;28;20471;-75
2022/09/30 11:40:36;;;;;;;6.15;4.20;;;13.20;99.90;;;;;;5033878;28;20017;-74
2022/09/30 11:43:19;;;;;;;7.28;3.47;;;13.60;99.90;;;;;;5051689;28;20027;-73
2022/09/30 11:45:45;;;;;;;4.18;2.70;;;13.80;99.90;;;;;;5051652;28;20049;-75
2022/09/30 11:48:30;;;;;;;7.32;3.28;;;14.30;99.90;;;;;;5051533;28;20056;-74
2022/09/30 11:51:19;;;;;;;4.68;3.17;;;14.40;99.90;;;;;;5043238;28;20025;-75
2022/09/30 11:53:50;;;;;;;5.03;2.95;;;15.20;99.90;;;;;;5040796;28;20036;-75
2022/09/30 11:56:28;;;;;;;3.70;3.17;;;16.00;99.90;;;;;;5051963;28;20021;-75
2022/09/30 11:58:59;;;;;;;5.13;4.10;;;16.20;99.90;;;;;;5044048;28;20013;-75
2022/09/30 12:01:36;;;;;;;4.80;3.40;;;16.50;99.90;;;;;;5033717;28;20024;-75
2022/09/30 12:04:08;;;;;;;6.32;3.28;;;17.20;99.90;;;;;;5052698;28;20025;-77
2022/09/30 12:06:41;;;;;;;5.10;3.22;;;17.30;99.90;;;;;;5052739;28;20028;-75
2022/09/30 12:09:37;;;;;;;4.97;3.30;;;16.80;99.90;;;;;;5049712;28;20049;-75
2022/09/30 12:12:12;;;;;;;;;;;17.30;99.90;;;;;;5044525;28;20021;-75
2022/09/30 12:14:56;;;;;;;5.20;4.18;;;17.50;99.90;;;;;;5042751;28;19925;-75
2022/09/30 12:17:31;;;;;;;5.97;3.85;;;17.20;99.90;;;;;;5051044;28;20013;-75
2022/09/30 12:20:01;;;;;;;4.22;3.45;;;17.10;99.90;;;;;;5051007;28;20033;-74
2022/09/30 12:22:32;;;;;;;5.30;4.30;;;18.50;99.90;;;;;;5027947;28;20044;-75
2022/09/30 12:25:00;;;;;;;5.80;4.25;;;17.50;99.90;;;;;;5051181;28;20429;-75
2022/09/30 12:27:38;;;;;;;6.55;3.80;;;17.30;99.90;;;;;;5049289;28;20471;-75
2022/09/30 12:30:20;;;;;;;3.60;3.30;;;16.50;99.90;;;;;;5052584;28;20021;-75
2022/09/30 12:33:10;;;;;;;4.10;3.33;;;17.20;99.90;;;;;;5036451;28;20028;-77
2022/09/30 12:35:42;;;;;;;2.88;2.40;;;18.60;99.90;;;;;;5040853;28;20028;-76
2022/09/30 12:38:24;;;;;;;3.60;2.10;;;18.00;99.90;;;;;;5055691;28;20036;-77
2022/09/30 12:41:23;;;;;;;3.17;2.17;;;16.90;99.90;;;;;;5055841;28;20021;-76
2022/09/30 12:44:39;;;;;;;3.78;2.20;;;18.10;99.90;;;;;;5037503;28;20052;-75
2022/09/30 12:47:23;;;;;;;2.33;1.90;;;19.00;99.90;;;;;;4954795;29;20059;-77
2022/09/30 12:49:50;;;;;;;2.20;1.67;;;20.00;99.90;;;;;;4954837;28;20159;-76
2022/09/30 12:52:20;;;;;;;4.05;2.05;;;18.70;99.90;;;;;;5022305;28;20040;-76
2022/09/30 12:54:56;;;;;;;2.97;2.08;;;17.90;99.90;;;;;;5055166;28;20546;-77
2022/09/30 12:57:32;;;;;;;2.92;1.90;;;18.00;99.90;;;;;;5037245;28;20094;-77
2022/09/30 13:00:13;;;;;;;3.90;2.17;;;18.80;99.90;;;;;;5037119;28;20103;-77
2022/09/30 13:02:43;;;;;;;3.28;1.67;;;18.60;99.90;;;;;;5055096;28;20013;-77
2022/09/30 13:05:28;;;;;;;3.05;2.00;;;19.20;99.90;;;;;;5037025;28;20025;-75
2022/09/30 13:08:03;;;;;;;3.13;1.80;;;18.60;99.90;;;;;;5054579;28;20036;-77
2022/09/30 13:10:42;;;;;;;4.25;1.80;;;18.50;99.90;;;;;;5055032;28;20029;-77
2022/09/30 13:13:31;;;;;;;4.10;2.30;;;16.80;99.90;;;;;;5036982;28;20029;-75
2022/09/30 13:16:04;;;;;;;2.95;2.03;;;17.50;99.90;;;;;;5054896;28;20028;-77
2022/09/30 13:18:29;;;;;;;5.45;2.00;;;18.30;99.90;;;;;;5036803;28;20478;-76